Time;durP1;ratioP1;P1;durP2;ratioP2;P2;SDS_P1;SDS_P2;PMS_P1;PMS_P2;Temp;Humidity;BMP_temperature;BMP_pressure;BME280_temperature;BME280_humidity;BME280_pressure;Samples;Min_cycle;Max_cycle;Signal;HPM_P1;HPM_P2
2022/10/31 00:02:00;;;;;;;9.80;9.50;;;11.30;99.90;;;;;;5082183;28;20257;-82
2022/10/31 00:04:29;;;;;;;9.73;9.43;;;11.30;99.90;;;;;;5081888;28;20298;-82
2022/10/31 00:07:01;;;;;;;9.63;9.33;;;11.30;99.90;;;;;;5083185;28;20288;-82
2022/10/31 00:09:29;;;;;;;9.70;9.40;;;11.20;99.90;;;;;;5081936;28;20264;-82
2022/10/31 00:11:59;;;;;;;9.80;9.50;;;11.10;99.90;;;;;;5081978;28;20367;-82
2022/10/31 00:14:32;;;;;;;9.90;9.60;;;11.10;99.90;;;;;;5081510;28;20680;-82
2022/10/31 00:17:00;;;;;;;9.67;9.37;;;11.00;99.90;;;;;;5081996;28;20219;-82
2022/10/31 00:19:30;;;;;;;9.80;9.50;;;11.00;99.90;;;;;;5082358;28;20277;-82
2022/10/31 00:22:00;;;;;;;9.90;9.60;;;11.00;99.90;;;;;;5082655;28;20234;-82
2022/10/31 00:24:28;;;;;;;9.93;9.63;;;10.90;99.90;;;;;;5081844;28;20238;-82
2022/10/31 00:26:57;;;;;;;9.83;9.53;;;10.90;99.90;;;;;;5082176;28;20229;-82
2022/10/31 00:29:29;;;;;;;9.90;9.60;;;10.80;99.90;;;;;;5081786;28;20257;-82
2022/10/31 00:32:00;;;;;;;9.90;9.60;;;10.80;99.90;;;;;;5081573;28;20253;-82
2022/10/31 00:34:27;;;;;;;10.23;9.93;;;10.70;99.90;;;;;;5080434;28;20258;-82
2022/10/31 00:36:57;;;;;;;9.90;9.60;;;10.60;99.90;;;;;;5081553;28;20234;-82
2022/10/31 00:39:25;;;;;;;10.10;9.80;;;10.60;99.90;;;;;;5081209;28;20306;-82
2022/10/31 00:41:55;;;;;;;9.90;9.60;;;10.60;99.90;;;;;;5081365;28;20229;-82
2022/10/31 00:44:24;;;;;;;9.93;9.63;;;10.50;99.90;;;;;;5081341;28;20301;-82
2022/10/31 00:46:55;;;;;;;9.67;9.37;;;10.40;99.90;;;;;;5082046;28;20236;-82
2022/10/31 00:49:25;;;;;;;9.80;9.50;;;10.40;99.90;;;;;;5082013;28;20301;-82
2022/10/31 00:51:53;;;;;;;9.70;9.40;;;10.40;99.90;;;;;;5082073;28;20249;-82
2022/10/31 00:54:22;;;;;;;9.60;9.30;;;10.30;99.90;;;;;;5081676;28;20313;-83
2022/10/31 00:56:53;;;;;;;9.60;9.30;;;10.30;99.90;;;;;;5083794;28;20333;-81
2022/10/31 00:59:21;;;;;;;9.67;9.37;;;10.30;99.90;;;;;;5092187;28;20223;-81
2022/10/31 01:01:50;;;;;;;9.63;9.33;;;10.30;99.90;;;;;;5094752;28;20260;-81
2022/10/31 01:04:20;;;;;;;9.97;9.67;;;10.20;99.90;;;;;;5095585;28;20269;-81
2022/10/31 01:06:52;;;;;;;10.00;9.70;;;10.20;99.90;;;;;;5095574;28;20222;-81
2022/10/31 01:09:20;;;;;;;9.90;9.60;;;10.10;99.90;;;;;;5093294;28;20234;-81
2022/10/31 01:11:49;;;;;;;9.70;9.40;;;10.10;99.90;;;;;;5083560;28;20229;-82
2022/10/31 01:14:17;;;;;;;9.87;9.57;;;10.10;99.90;;;;;;5083114;28;20276;-82
2022/10/31 01:16:45;;;;;;;9.90;9.60;;;10.10;99.90;;;;;;5082327;28;20230;-81
2022/10/31 01:19:17;;;;;;;9.90;9.60;;;10.00;99.90;;;;;;5081947;28;20268;-82
2022/10/31 01:21:46;;;;;;;9.80;9.50;;;10.00;99.90;;;;;;5083944;28;20332;-82
2022/10/31 01:24:17;;;;;;;9.50;9.20;;;9.90;99.90;;;;;;5081634;28;20226;-81
2022/10/31 01:26:45;;;;;;;9.70;9.40;;;9.90;99.90;;;;;;5081034;28;20291;-81
2022/10/31 01:29:14;;;;;;;9.90;9.60;;;9.90;99.90;;;;;;5081201;28;20237;-82
2022/10/31 01:31:44;;;;;;;9.60;9.30;;;10.00;99.90;;;;;;5081105;28;20297;-82
2022/10/31 01:34:16;;;;;;;9.60;9.30;;;10.00;99.90;;;;;;5080849;28;20230;-82
2022/10/31 01:36:47;;;;;;;9.70;9.40;;;10.00;99.90;;;;;;5080709;28;20223;-81
2022/10/31 01:39:21;;;;;;;9.60;9.30;;;10.00;99.90;;;;;;5080840;28;20234;-81
2022/10/31 01:41:52;;;;;;;9.70;9.40;;;10.00;99.90;;;;;;5080657;28;20266;-81
2022/10/31 01:44:59;;;;;;;9.80;9.50;;;10.00;99.90;;;;;;5105160;22;20234;-87
2022/10/31 01:47:43;;;;;;;9.60;9.30;;;10.00;99.90;;;;;;5096595;28;20224;-87
2022/10/31 01:50:30;;;;;;;9.93;9.63;;;10.00;99.90;;;;;;5097893;28;20217;-87
2022/10/31 01:52:59;;;;;;;9.60;9.30;;;10.00;99.90;;;;;;5097808;28;20320;-87
2022/10/31 01:58:42;;;;;;;10.03;9.73;;;10.10;99.90;;;;;;5096671;28;20240;-87
2022/10/31 02:01:10;;;;;;;9.80;9.50;;;10.10;99.90;;;;;;5098034;28;20305;-87
2022/10/31 02:03:40;;;;;;;9.73;9.43;;;10.10;99.90;;;;;;5097403;28;20244;-87
2022/10/31 02:06:18;;;;;;;9.93;9.63;;;10.10;99.90;;;;;;5097194;28;20288;-88
2022/10/31 02:08:52;;;;;;;9.80;9.50;;;10.10;99.90;;;;;;5097314;28;20743;-88
2022/10/31 02:11:54;;;;;;;9.90;9.60;;;10.00;99.90;;;;;;5096747;28;20213;-87
2022/10/31 02:14:24;;;;;;;9.93;9.63;;;10.00;99.90;;;;;;5097653;28;20232;-86
2022/10/31 02:16:53;;;;;;;9.97;9.67;;;9.90;99.90;;;;;;5097921;28;20229;-86
2022/10/31 02:19:33;;;;;;;9.97;9.67;;;9.90;99.90;;;;;;5097102;28;20222;-86
2022/10/31 02:22:10;;;;;;;10.13;9.83;;;9.90;99.90;;;;;;5097271;28;20316;-86
2022/10/31 02:24:58;;;;;;;10.00;9.70;;;9.90;99.90;;;;;;5097511;28;20280;-87
2022/10/31 02:31:43;;;;;;;9.90;9.60;;;9.90;99.90;;;;;;5092653;28;20294;-87
2022/10/31 02:34:20;;;;;;;9.70;9.40;;;9.90;99.90;;;;;;5097092;28;20229;-87
2022/10/31 02:36:57;;;;;;;9.70;9.40;;;9.80;99.90;;;;;;5116533;27;20217;-87
2022/10/31 02:39:29;;;;;;;9.83;9.53;;;9.80;99.90;;;;;;5109982;27;20236;-87
2022/10/31 02:42:08;;;;;;;9.90;9.60;;;9.80;99.90;;;;;;5097112;28;20233;-87
2022/10/31 02:44:44;;;;;;;10.10;9.80;;;9.80;99.90;;;;;;5096509;28;20252;-87
2022/10/31 02:50:29;;;;;;;9.87;9.57;;;9.80;99.90;;;;;;5095275;28;20225;-88
2022/10/31 02:52:57;;;;;;;10.10;9.80;;;9.80;99.90;;;;;;5097541;28;20233;-87
2022/10/31 02:56:02;;;;;;;9.93;9.63;;;9.80;99.90;;;;;;5096650;28;20283;-87
2022/10/31 02:58:38;;;;;;;10.10;9.80;;;9.80;99.90;;;;;;5099800;28;20235;-87
2022/10/31 03:01:34;;;;;;;9.90;9.60;;;9.80;99.90;;;;;;5100503;28;20384;-87
2022/10/31 03:04:50;;;;;;;9.83;9.53;;;9.80;99.90;;;;;;5100172;28;20318;-87
2022/10/31 03:07:29;;;;;;;9.80;9.50;;;9.80;99.90;;;;;;5119310;27;20282;-87
2022/10/31 03:10:06;;;;;;;10.00;9.70;;;9.80;99.90;;;;;;5103088;28;20265;-87
2022/10/31 03:12:43;;;;;;;9.70;9.40;;;9.80;99.90;;;;;;5102808;28;20226;-87
2022/10/31 03:15:20;;;;;;;9.80;9.50;;;9.80;99.90;;;;;;5100816;28;20237;-88
2022/10/31 03:17:59;;;;;;;9.77;9.47;;;9.80;99.90;;;;;;5100820;28;20232;-87
2022/10/31 03:20:38;;;;;;;9.90;9.60;;;9.80;99.90;;;;;;5100732;28;20233;-88
2022/10/31 03:23:17;;;;;;;9.80;9.50;;;9.80;99.90;;;;;;5099994;28;20237;-87
2022/10/31 03:25:46;;;;;;;9.90;9.60;;;9.80;99.90;;;;;;5099926;28;20229;-86
2022/10/31 03:31:01;;;;;;;9.90;9.60;;;9.80;99.90;;;;;;5099266;28;20221;-88
2022/10/31 03:33:34;;;;;;;9.93;9.63;;;9.80;99.90;;;;;;5100492;28;20237;-86
2022/10/31 03:36:09;;;;;;;10.10;9.80;;;9.80;99.90;;;;;;5100195;28;20229;-85
2022/10/31 03:38:41;;;;;;;9.77;9.47;;;9.80;99.90;;;;;;5100379;28;20229;-86
2022/10/31 03:41:16;;;;;;;9.97;9.67;;;9.80;99.90;;;;;;5118550;28;20244;-86
2022/10/31 03:43:58;;;;;;;9.87;9.57;;;9.80;99.90;;;;;;5103569;28;20237;-86
2022/10/31 03:46:26;;;;;;;9.90;9.60;;;9.70;99.90;;;;;;5105895;28;20237;-86
2022/10/31 03:48:54;;;;;;;9.80;9.50;;;9.70;99.90;;;;;;5105950;28;20228;-86
2022/10/31 03:51:40;;;;;;;10.00;9.70;;;9.70;99.90;;;;;;5106755;28;20229;-86
2022/10/31 03:54:20;;;;;;;10.10;9.80;;;9.60;99.90;;;;;;5107905;28;20259;-86
2022/10/31 03:56:59;;;;;;;10.03;9.73;;;9.60;99.90;;;;;;5106013;28;20259;-87
2022/10/31 03:59:35;;;;;;;9.90;9.60;;;9.40;99.90;;;;;;5107220;28;20247;-86
2022/10/31 04:02:08;;;;;;;9.87;9.57;;;9.30;99.90;;;;;;5114597;28;20233;-86
2022/10/31 04:04:43;;;;;;;9.97;9.67;;;9.30;99.90;;;;;;5108563;28;20237;-86
2022/10/31 04:07:23;;;;;;;9.80;9.50;;;9.20;99.90;;;;;;5099761;28;20229;-87
2022/10/31 04:09:53;;;;;;;9.70;9.40;;;9.10;99.90;;;;;;5098893;28;20225;-86
2022/10/31 04:12:22;;;;;;;9.70;9.40;;;9.10;99.90;;;;;;5099305;28;20233;-86
2022/10/31 04:14:51;;;;;;;9.70;9.40;;;9.20;99.90;;;;;;5099254;28;20232;-86
2022/10/31 04:17:22;;;;;;;9.87;9.57;;;9.20;99.90;;;;;;5099301;28;20233;-86
2022/10/31 04:19:50;;;;;;;10.10;9.80;;;9.30;99.90;;;;;;5099100;28;20383;-86
2022/10/31 04:25:07;;;;;;;10.20;9.90;;;9.40;99.90;;;;;;5098706;28;20237;-86
2022/10/31 04:27:36;;;;;;;10.00;9.70;;;9.40;99.90;;;;;;5098777;28;20230;-86
2022/10/31 04:30:07;;;;;;;9.93;9.63;;;9.40;99.90;;;;;;5099018;28;20222;-87
2022/10/31 04:32:36;;;;;;;10.00;9.70;;;9.40;99.90;;;;;;5098945;28;20237;-87
2022/10/31 04:35:05;;;;;;;9.90;9.60;;;9.40;99.90;;;;;;5098914;28;20253;-86
2022/10/31 04:37:43;;;;;;;9.90;9.60;;;9.40;99.90;;;;;;5099398;28;20264;-87
2022/10/31 04:40:12;;;;;;;10.00;9.70;;;9.40;99.90;;;;;;5102350;28;20213;-86
2022/10/31 04:42:41;;;;;;;10.00;9.70;;;9.40;99.90;;;;;;5107616;28;20291;-86
2022/10/31 04:45:12;;;;;;;10.00;9.70;;;9.50;99.90;;;;;;5110382;28;20268;-86
2022/10/31 04:47:42;;;;;;;10.30;10.00;;;9.50;99.90;;;;;;5109308;28;20240;-87
2022/10/31 04:50:10;;;;;;;10.20;9.90;;;9.50;99.90;;;;;;5109643;28;20213;-86
2022/10/31 04:52:42;;;;;;;9.90;9.60;;;9.50;99.90;;;;;;5110973;28;20256;-86
2022/10/31 04:55:12;;;;;;;9.93;9.63;;;9.50;99.90;;;;;;5111657;28;20261;-86
2022/10/31 04:57:47;;;;;;;9.90;9.60;;;9.50;99.90;;;;;;5111780;28;20244;-86
2022/10/31 05:00:19;;;;;;;9.93;9.63;;;9.50;99.90;;;;;;5111854;28;20224;-86
2022/10/31 05:02:47;;;;;;;10.00;9.70;;;9.50;99.90;;;;;;5111645;28;20267;-87
2022/10/31 05:08:11;;;;;;;9.87;9.57;;;9.50;99.90;;;;;;5110338;28;20232;-86
2022/10/31 05:10:41;;;;;;;9.90;9.60;;;9.40;99.90;;;;;;5113108;28;20240;-87
2022/10/31 05:13:10;;;;;;;10.20;9.90;;;9.30;99.90;;;;;;5110417;28;20260;-87
2022/10/31 05:15:39;;;;;;;10.00;9.70;;;9.20;99.90;;;;;;5108949;28;20229;-86
2022/10/31 05:18:10;;;;;;;10.10;9.80;;;9.20;99.90;;;;;;5108203;28;20229;-86
2022/10/31 05:20:38;;;;;;;10.07;9.77;;;9.10;99.90;;;;;;5108045;28;20708;-87
2022/10/31 05:23:10;;;;;;;9.73;9.43;;;9.10;99.90;;;;;;5108036;28;20268;-86
2022/10/31 05:25:38;;;;;;;10.10;9.80;;;9.00;99.90;;;;;;5110004;28;20248;-86
2022/10/31 05:28:06;;;;;;;9.80;9.50;;;9.00;99.90;;;;;;5110999;28;20229;-86
2022/10/31 05:30:36;;;;;;;9.80;9.50;;;9.00;99.90;;;;;;5107978;28;20218;-86
2022/10/31 05:33:05;;;;;;;9.93;9.63;;;9.00;99.90;;;;;;5108369;28;20236;-86
2022/10/31 05:35:36;;;;;;;9.60;9.30;;;9.00;99.90;;;;;;5107364;28;20241;-87
2022/10/31 05:38:05;;;;;;;9.63;9.33;;;9.00;99.90;;;;;;5109004;28;20226;-87
2022/10/31 05:40:42;;;;;;;9.63;9.33;;;8.90;99.90;;;;;;5107567;28;20309;-87
2022/10/31 05:43:12;;;;;;;9.63;9.33;;;8.90;99.90;;;;;;5108609;28;20264;-86
2022/10/31 05:45:42;;;;;;;9.93;9.63;;;8.90;99.90;;;;;;5107536;28;20300;-86
2022/10/31 05:48:12;;;;;;;10.07;9.77;;;8.90;99.90;;;;;;5105601;28;20229;-87
2022/10/31 05:50:41;;;;;;;9.90;9.60;;;8.90;99.90;;;;;;5107117;28;20347;-87
2022/10/31 05:53:11;;;;;;;9.80;9.50;;;8.90;99.90;;;;;;5107350;28;20267;-87
2022/10/31 05:55:48;;;;;;;10.00;9.70;;;8.90;99.90;;;;;;5107269;28;20289;-87
2022/10/31 05:58:17;;;;;;;10.00;9.70;;;8.90;99.90;;;;;;5107327;28;20227;-87
2022/10/31 06:00:47;;;;;;;10.27;9.97;;;8.90;99.90;;;;;;5107624;28;20221;-85
2022/10/31 06:03:17;;;;;;;10.10;9.80;;;8.90;99.90;;;;;;5109534;28;20233;-86
2022/10/31 06:05:48;;;;;;;10.00;9.70;;;8.90;99.90;;;;;;5110001;28;20241;-86
2022/10/31 06:08:20;;;;;;;9.97;9.67;;;8.90;99.90;;;;;;5109221;28;20252;-87
2022/10/31 06:10:49;;;;;;;10.10;9.80;;;8.90;99.90;;;;;;5109110;28;20238;-87
2022/10/31 06:13:17;;;;;;;9.90;9.60;;;8.90;99.90;;;;;;5109210;28;20236;-86
2022/10/31 06:15:45;;;;;;;10.23;9.93;;;8.90;99.90;;;;;;5107980;28;20260;-87
2022/10/31 06:18:15;;;;;;;10.07;9.77;;;8.90;99.90;;;;;;5108101;28;20252;-86
2022/10/31 06:20:44;;;;;;;9.90;9.60;;;8.90;99.90;;;;;;5108446;28;20224;-85
2022/10/31 06:23:14;;;;;;;10.10;9.80;;;8.90;99.90;;;;;;5109740;28;20238;-85
2022/10/31 06:25:55;;;;;;;9.90;9.60;;;8.90;99.90;;;;;;5112029;28;20245;-85
2022/10/31 06:28:26;;;;;;;10.00;9.70;;;8.80;99.90;;;;;;5119381;27;20212;-86
2022/10/31 06:30:54;;;;;;;10.10;9.80;;;8.80;99.90;;;;;;5111198;28;20217;-87
2022/10/31 06:33:29;;;;;;;10.10;9.80;;;8.80;99.90;;;;;;5110349;28;20229;-86
2022/10/31 06:36:00;;;;;;;10.03;9.73;;;8.90;99.90;;;;;;5110724;28;20232;-86
2022/10/31 06:38:32;;;;;;;10.10;9.80;;;8.90;99.90;;;;;;5111139;28;20241;-85
2022/10/31 06:41:06;;;;;;;10.03;9.73;;;9.00;99.90;;;;;;5112933;28;20244;-86
2022/10/31 06:43:35;;;;;;;9.93;9.63;;;9.10;99.90;;;;;;5112816;28;20267;-86
2022/10/31 06:46:15;;;;;;;9.90;9.60;;;9.10;99.90;;;;;;5112646;28;20232;-85
2022/10/31 06:48:55;;;;;;;10.03;9.73;;;9.10;99.90;;;;;;5112460;28;20251;-86
2022/10/31 06:54:08;;;;;;;9.80;9.50;;;9.10;99.90;;;;;;5112492;28;20221;-86
2022/10/31 06:59:26;;;;;;;9.87;9.57;;;9.30;99.90;;;;;;5107712;28;20228;-85
2022/10/31 07:01:54;;;;;;;9.70;9.40;;;9.30;99.90;;;;;;5102635;28;20225;-86
2022/10/31 07:04:25;;;;;;;9.93;9.63;;;9.30;99.90;;;;;;5107893;28;20234;-87
2022/10/31 07:06:53;;;;;;;9.87;9.57;;;9.40;99.90;;;;;;5101590;28;20307;-86
2022/10/31 07:09:23;;;;;;;10.00;9.70;;;9.40;99.90;;;;;;5118147;28;20214;-86
2022/10/31 07:15:06;;;;;;;10.00;9.70;;;9.50;99.90;;;;;;5102782;28;20229;-86
2022/10/31 07:17:37;;;;;;;9.63;9.33;;;9.60;99.90;;;;;;5101707;28;20233;-86
2022/10/31 07:20:14;;;;;;;10.17;9.87;;;9.60;99.90;;;;;;5101893;28;20245;-85
2022/10/31 07:22:47;;;;;;;10.00;9.70;;;9.60;99.90;;;;;;5101709;28;20311;-86
2022/10/31 07:25:35;;;;;;;10.00;9.70;;;9.60;99.90;;;;;;5101755;28;20233;-86
2022/10/31 07:28:09;;;;;;;10.10;9.80;;;9.70;99.90;;;;;;5101855;28;20221;-86
2022/10/31 07:30:39;;;;;;;10.33;10.03;;;9.80;99.90;;;;;;5101514;28;20281;-86
2022/10/31 07:33:07;;;;;;;10.30;10.00;;;9.90;99.90;;;;;;5100902;28;20218;-87
2022/10/31 07:35:46;;;;;;;10.20;9.90;;;10.00;99.90;;;;;;5100627;28;20287;-87
2022/10/31 07:41:11;;;;;;;10.00;9.70;;;10.10;99.90;;;;;;5100449;28;20225;-87
2022/10/31 07:43:49;;;;;;;10.03;9.73;;;10.20;99.90;;;;;;5100711;28;20225;-87
2022/10/31 07:46:16;;;;;;;9.67;9.37;;;10.30;99.90;;;;;;5123300;22;20268;-82
2022/10/31 07:48:44;;;;;;;10.00;9.70;;;10.40;99.90;;;;;;5102181;28;20253;-83
2022/10/31 07:51:11;;;;;;;9.90;9.60;;;10.50;99.90;;;;;;5102075;28;20316;-82
2022/10/31 07:53:38;;;;;;;10.10;9.80;;;10.60;99.90;;;;;;5102601;28;20316;-82
2022/10/31 07:56:06;;;;;;;10.00;9.70;;;10.60;99.90;;;;;;5101694;28;20245;-84
2022/10/31 07:58:36;;;;;;;9.87;9.57;;;10.70;99.90;;;;;;5102355;28;20236;-82
2022/10/31 08:01:08;;;;;;;9.90;9.60;;;10.70;99.90;;;;;;5102837;28;20269;-82
2022/10/31 08:03:36;;;;;;;9.80;9.50;;;10.80;99.90;;;;;;5102287;28;20261;-82
2022/10/31 08:06:05;;;;;;;9.57;9.27;;;10.90;99.90;;;;;;5103002;28;20257;-82
2022/10/31 08:08:37;;;;;;;9.53;9.23;;;11.00;99.90;;;;;;5102484;28;20280;-82
2022/10/31 08:11:05;;;;;;;9.60;9.30;;;11.00;99.90;;;;;;5102632;28;20225;-82
2022/10/31 08:13:35;;;;;;;9.83;9.53;;;11.10;99.90;;;;;;5102651;28;20225;-82
2022/10/31 08:16:07;;;;;;;9.50;9.20;;;11.20;99.90;;;;;;5103901;28;20241;-82
2022/10/31 08:18:37;;;;;;;9.70;9.40;;;11.20;99.90;;;;;;5102434;28;20295;-82
2022/10/31 08:21:04;;;;;;;9.83;9.53;;;11.20;99.90;;;;;;5102607;28;20225;-82
2022/10/31 08:23:32;;;;;;;9.90;9.60;;;11.30;99.90;;;;;;5101507;28;20281;-82
2022/10/31 08:26:02;;;;;;;9.93;9.63;;;11.40;99.90;;;;;;5102475;28;20288;-82
2022/10/31 08:28:31;;;;;;;9.73;9.43;;;11.50;99.90;;;;;;5102854;28;20229;-82
2022/10/31 08:31:01;;;;;;;9.90;9.60;;;11.70;99.90;;;;;;5102278;28;20230;-82
2022/10/31 08:33:36;;;;;;;9.20;8.90;;;11.80;99.90;;;;;;5102924;28;20225;-82
2022/10/31 08:36:09;;;;;;;9.57;9.27;;;12.00;99.90;;;;;;5106214;28;20246;-82
2022/10/31 08:38:38;;;;;;;9.20;8.90;;;12.20;99.90;;;;;;5103162;28;20288;-82
2022/10/31 08:41:07;;;;;;;9.10;8.80;;;12.20;99.90;;;;;;5102100;28;20287;-82
2022/10/31 08:43:37;;;;;;;8.87;8.67;;;12.40;99.90;;;;;;5102608;28;20268;-82
2022/10/31 08:46:06;;;;;;;8.77;8.57;;;12.60;99.90;;;;;;5101889;28;20233;-83
2022/10/31 08:51:23;;;;;;;8.60;8.40;;;12.90;99.90;;;;;;5101594;28;20225;-83
2022/10/31 08:53:52;;;;;;;8.60;8.40;;;13.10;99.90;;;;;;5101714;28;20224;-83
2022/10/31 08:56:22;;;;;;;8.70;8.50;;;13.20;99.90;;;;;;5101529;28;20300;-83
2022/10/31 08:58:51;;;;;;;8.77;8.57;;;13.40;99.90;;;;;;5102087;28;20803;-83
2022/10/31 09:01:20;;;;;;;8.60;8.40;;;13.50;99.90;;;;;;5102355;28;20288;-82
2022/10/31 09:03:52;;;;;;;8.67;8.47;;;13.60;99.90;;;;;;5101649;28;20320;-82
2022/10/31 09:06:20;;;;;;;8.70;8.50;;;14.00;99.90;;;;;;5101986;28;20233;-82
2022/10/31 09:08:48;;;;;;;8.70;8.50;;;14.30;99.90;;;;;;5103464;28;20231;-82
2022/10/31 09:11:18;;;;;;;8.53;8.33;;;14.70;99.90;;;;;;5103314;28;20288;-82
2022/10/31 09:13:47;;;;;;;8.73;8.52;;;15.00;99.90;;;;;;5103652;28;20217;-83
2022/10/31 09:16:17;;;;;;;9.20;8.90;;;15.30;99.90;;;;;;5103763;28;20325;-82
2022/10/31 09:18:46;;;;;;;8.90;8.60;;;15.40;99.90;;;;;;5103572;28;20237;-82
2022/10/31 09:21:17;;;;;;;8.77;8.55;;;15.60;99.90;;;;;;5101506;28;20241;-82
2022/10/31 09:23:45;;;;;;;9.38;9.07;;;15.90;99.90;;;;;;5101560;28;20328;-82
2022/10/31 09:26:13;;;;;;;9.30;9.00;;;16.10;99.90;;;;;;5101658;28;20320;-82
2022/10/31 09:28:46;;;;;;;9.00;8.70;;;16.40;99.90;;;;;;5102583;28;20260;-82
2022/10/31 09:31:13;;;;;;;9.23;8.93;;;16.50;99.90;;;;;;5103623;28;20218;-82
2022/10/31 09:33:43;;;;;;;9.63;9.32;;;16.80;99.90;;;;;;5103668;28;20257;-82
2022/10/31 09:36:13;;;;;;;9.52;9.23;;;16.90;99.90;;;;;;5101668;28;20229;-83
2022/10/31 09:38:51;;;;;;;9.50;9.20;;;17.20;99.90;;;;;;5100912;28;20267;-82
2022/10/31 09:41:29;;;;;;;9.85;9.55;;;17.40;99.90;;;;;;5101076;28;20320;-82
2022/10/31 09:44:08;;;;;;;9.57;9.27;;;17.50;99.90;;;;;;5101610;28;20339;-82
2022/10/31 09:46:49;;;;;;;9.57;9.27;;;17.60;99.90;;;;;;5110509;28;20244;-82
2022/10/31 09:49:54;;;;;;;9.80;9.50;;;17.80;99.90;;;;;;5120318;27;20225;-82
2022/10/31 09:52:27;;;;;;;9.82;9.52;;;18.20;99.90;;;;;;5120652;27;20281;-83
2022/10/31 09:55:00;;;;;;;9.80;9.50;;;18.20;99.90;;;;;;5120053;27;20262;-82
2022/10/31 09:57:35;;;;;;;9.57;9.27;;;18.40;99.90;;;;;;5118799;27;20285;-82
2022/10/31 10:00:05;;;;;;;10.00;9.70;;;18.40;99.90;;;;;;5107945;28;20284;-82
2022/10/31 10:02:43;;;;;;;9.90;9.60;;;18.70;99.90;;;;;;5111694;28;20320;-82
2022/10/31 10:05:14;;;;;;;10.18;9.88;;;18.90;99.90;;;;;;5116861;28;20236;-82
2022/10/31 10:07:54;;;;;;;10.30;10.00;;;19.20;99.90;;;;;;5116686;27;20292;-82
2022/10/31 10:10:40;;;;;;;10.20;9.90;;;19.50;99.90;;;;;;5115753;28;20221;-83
2022/10/31 10:13:29;;;;;;;9.95;9.65;;;19.80;99.90;;;;;;5116629;28;20244;-83
2022/10/31 10:16:16;;;;;;;10.38;10.07;;;19.90;99.90;;;;;;5115757;28;20248;-82
2022/10/31 10:19:01;;;;;;;10.30;10.00;;;20.00;99.90;;;;;;5114475;28;20233;-82
2022/10/31 10:21:48;;;;;;;10.50;10.20;;;20.30;99.90;;;;;;5116540;28;20233;-82
2022/10/31 10:24:32;;;;;;;10.65;10.35;;;20.40;99.90;;;;;;5117166;27;20260;-82
2022/10/31 10:27:16;;;;;;;10.85;10.55;;;20.70;99.90;;;;;;5115783;28;20252;-82
2022/10/31 10:29:52;;;;;;;10.75;10.45;;;21.10;99.90;;;;;;5108006;28;20232;-83
2022/10/31 10:32:28;;;;;;;10.85;10.55;;;21.40;99.90;;;;;;5106647;28;20225;-83
2022/10/31 10:35:00;;;;;;;10.43;10.13;;;21.70;99.90;;;;;;5105323;28;20260;-82
2022/10/31 10:37:34;;;;;;;10.52;10.23;;;21.70;99.90;;;;;;5102075;28;20238;-81
2022/10/31 10:40:16;;;;;;;10.55;10.25;;;21.60;99.90;;;;;;5100136;28;20286;-82
2022/10/31 10:48:40;;;;;;;10.85;10.55;;;22.00;99.90;;;;;;5101121;28;20709;-82
2022/10/31 10:51:22;;;;;;;10.50;10.20;;;22.10;99.90;;;;;;5101306;28;20319;-82
2022/10/31 10:54:13;;;;;;;10.43;10.13;;;22.20;99.90;;;;;;5100040;28;20255;-82
2022/10/31 10:56:58;;;;;;;10.60;10.30;;;22.20;99.90;;;;;;5101780;28;20279;-82
2022/10/31 10:59:27;;;;;;;10.82;10.52;;;22.30;99.90;;;;;;5101825;28;20244;-82
2022/10/31 11:01:56;;;;;;;10.70;10.40;;;22.30;99.90;;;;;;5100079;28;20249;-81
2022/10/31 11:04:32;;;;;;;10.27;9.98;;;22.00;99.90;;;;;;5100041;28;20283;-82
2022/10/31 11:07:06;;;;;;;10.57;10.27;;;22.00;99.90;;;;;;5100039;28;20249;-82
2022/10/31 11:09:34;;;;;;;10.43;10.13;;;22.00;99.90;;;;;;5100588;28;20233;-82
2022/10/31 11:12:10;;;;;;;10.77;10.48;;;22.00;99.90;;;;;;5100157;28;20267;-82
2022/10/31 11:14:48;;;;;;;10.73;10.43;;;22.10;99.90;;;;;;5112530;28;20233;-82
2022/10/31 11:17:28;;;;;;;10.55;10.25;;;22.20;99.90;;;;;;5112757;28;20222;-82
2022/10/31 11:20:07;;;;;;;10.50;10.20;;;22.30;99.90;;;;;;5115499;28;20233;-82
2022/10/31 11:22:36;;;;;;;10.20;9.90;;;22.20;99.90;;;;;;5111897;28;20229;-82
2022/10/31 11:25:22;;;;;;;10.25;9.95;;;22.20;99.90;;;;;;5108117;28;20299;-82
2022/10/31 11:28:01;;;;;;;10.55;10.25;;;22.30;99.90;;;;;;5105081;28;20321;-82
2022/10/31 11:30:38;;;;;;;10.50;10.20;;;22.30;99.90;;;;;;5103554;28;20260;-82
2022/10/31 11:33:06;;;;;;;10.40;10.10;;;22.40;99.90;;;;;;5104640;28;20269;-82
2022/10/31 11:35:36;;;;;;;10.32;10.02;;;22.30;99.90;;;;;;5103811;28;20239;-82
2022/10/31 11:38:07;;;;;;;10.50;10.20;;;22.50;99.90;;;;;;5104986;28;20255;-82
2022/10/31 11:40:34;;;;;;;10.63;10.32;;;22.40;99.90;;;;;;5104915;28;20221;-82
2022/10/31 11:43:04;;;;;;;10.63;10.32;;;22.60;99.90;;;;;;5104965;28;20221;-82
2022/10/31 11:45:36;;;;;;;10.70;10.40;;;22.70;99.90;;;;;;5103327;28;20323;-81
2022/10/31 11:48:17;;;;;;;10.40;10.10;;;23.00;99.90;;;;;;5104204;28;20233;-81
2022/10/31 11:50:51;;;;;;;10.70;10.40;;;23.20;99.90;;;;;;5103361;28;20230;-81
2022/10/31 11:53:30;;;;;;;10.43;10.13;;;23.20;99.90;;;;;;5105137;28;20259;-81
2022/10/31 11:56:20;;;;;;;10.52;10.23;;;23.20;99.90;;;;;;5103849;28;20328;-81
2022/10/31 11:58:57;;;;;;;10.90;10.60;;;23.30;99.90;;;;;;5103889;28;20256;-82
2022/10/31 12:01:32;;;;;;;10.70;10.40;;;23.10;99.90;;;;;;5103628;28;20248;-82
2022/10/31 12:04:12;;;;;;;10.60;10.30;;;23.00;99.90;;;;;;5103026;28;20229;-82
2022/10/31 12:06:42;;;;;;;10.30;10.00;;;23.10;99.90;;;;;;5102672;28;20232;-82
2022/10/31 12:09:23;;;;;;;10.48;10.18;;;23.10;99.90;;;;;;5103600;28;20231;-82
2022/10/31 12:12:27;;;;;;;10.65;10.35;;;23.10;99.90;;;;;;5104561;28;20225;-82
2022/10/31 12:15:11;;;;;;;10.80;10.50;;;23.20;99.90;;;;;;5103436;28;20716;-82
2022/10/31 12:17:45;;;;;;;10.50;10.20;;;22.90;99.90;;;;;;5103413;28;20283;-82
2022/10/31 12:20:27;;;;;;;10.90;10.60;;;23.10;99.90;;;;;;5103040;28;20255;-83
2022/10/31 12:23:06;;;;;;;11.00;10.70;;;23.30;99.90;;;;;;5102808;28;20219;-82
2022/10/31 12:25:45;;;;;;;11.00;10.70;;;23.40;99.90;;;;;;5102951;28;20305;-83
2022/10/31 12:28:49;;;;;;;10.85;10.55;;;23.60;99.90;;;;;;5102994;28;20296;-82
2022/10/31 12:31:34;;;;;;;10.80;10.50;;;23.80;99.90;;;;;;5102133;28;20256;-81
2022/10/31 12:34:42;;;;;;;10.32;10.02;;;23.80;99.90;;;;;;5102551;28;20324;-81
2022/10/31 12:37:25;;;;;;;10.50;10.20;;;23.90;99.90;;;;;;5102713;28;20272;-81
2022/10/31 12:40:05;;;;;;;10.57;10.27;;;23.90;99.90;;;;;;5102382;28;20768;-82
2022/10/31 12:42:48;;;;;;;10.65;10.35;;;23.60;99.90;;;;;;5102162;28;20302;-82
2022/10/31 12:45:36;;;;;;;10.55;10.25;;;23.60;99.90;;;;;;5101870;28;20275;-81
2022/10/31 12:48:27;;;;;;;10.68;10.38;;;23.50;99.90;;;;;;5102691;28;20323;-81
2022/10/31 12:51:04;;;;;;;10.80;10.50;;;23.50;99.90;;;;;;5102814;28;20263;-82
2022/10/31 12:53:52;;;;;;;10.90;10.60;;;23.50;99.90;;;;;;5102934;28;20324;-82
2022/10/31 12:56:37;;;;;;;10.73;10.43;;;23.60;99.90;;;;;;5103587;28;20237;-81
2022/10/31 12:59:14;;;;;;;10.82;10.52;;;23.50;99.90;;;;;;5102689;28;20965;-81
2022/10/31 13:01:48;;;;;;;10.57;10.27;;;23.50;99.90;;;;;;5103392;28;20248;-82
2022/10/31 13:04:20;;;;;;;10.20;9.90;;;23.40;99.90;;;;;;5103206;28;20236;-82
2022/10/31 13:06:57;;;;;;;10.30;10.00;;;23.30;99.90;;;;;;5104208;28;20290;-82
2022/10/31 13:09:35;;;;;;;10.50;10.20;;;23.20;99.90;;;;;;5104633;28;20236;-82
2022/10/31 13:12:13;;;;;;;10.20;9.90;;;23.10;99.90;;;;;;5105945;28;20232;-82
2022/10/31 13:14:45;;;;;;;10.00;9.70;;;22.90;99.90;;;;;;5105979;28;20249;-82
2022/10/31 13:17:22;;;;;;;10.20;9.90;;;22.80;99.90;;;;;;5105419;28;20291;-82
2022/10/31 13:19:53;;;;;;;10.40;10.10;;;22.60;99.90;;;;;;5105212;28;20252;-82
2022/10/31 13:22:31;;;;;;;10.32;10.02;;;22.40;99.90;;;;;;5105621;28;20248;-83
2022/10/31 13:25:08;;;;;;;10.07;9.77;;;22.20;99.90;;;;;;5105223;28;20229;-82
2022/10/31 13:27:51;;;;;;;10.13;9.82;;;22.10;99.90;;;;;;5105763;28;20283;-82
2022/10/31 13:30:22;;;;;;;10.10;9.80;;;22.00;99.90;;;;;;5106308;28;20335;-83
2022/10/31 13:32:55;;;;;;;9.85;9.55;;;21.90;99.90;;;;;;5108130;28;20230;-83
2022/10/31 13:35:30;;;;;;;10.23;9.93;;;22.00;99.90;;;;;;5109982;28;20285;-83
2022/10/31 13:38:20;;;;;;;10.18;9.88;;;21.90;99.90;;;;;;5109040;28;20224;-83
2022/10/31 13:40:57;;;;;;;10.10;9.80;;;21.90;99.90;;;;;;5120203;27;20221;-84
2022/10/31 13:43:35;;;;;;;9.73;9.43;;;21.80;99.90;;;;;;5120287;27;20236;-83
2022/10/31 13:46:05;;;;;;;9.85;9.55;;;21.80;99.90;;;;;;5134060;22;20233;-87
2022/10/31 13:49:26;;;;;;;9.85;9.55;;;21.70;99.90;;;;;;5097698;28;20281;-87
2022/10/31 13:52:46;;;;;;;9.90;9.60;;;21.80;99.90;;;;;;5098655;28;20324;-86
2022/10/31 14:02:44;;;;;;;9.95;9.65;;;22.20;99.90;;;;;;5092310;28;20224;-86
2022/10/31 14:06:00;;;;;;;10.10;9.80;;;22.20;99.90;;;;;;5097411;28;20233;-87
2022/10/31 14:12:57;;;;;;;9.70;9.40;;;22.10;99.90;;;;;;5096837;28;20290;-86